Time;durP1;ratioP1;P1;durP2;ratioP2;P2;SDS_P1;SDS_P2;PMS_P1;PMS_P2;Temp;Humidity;BMP_temperature;BMP_pressure;BME280_temperature;BME280_humidity;BME280_pressure;Samples;Min_cycle;Max_cycle;Signal;HPM_P1;HPM_P2
2021/07/06 00:02:26;;;;;;;16.65;14.95;;;16.90;99.70;;;;;;5039521;28;20033;-80
2021/07/06 00:05:01;;;;;;;16.20;14.52;;;16.90;99.70;;;;;;5046528;28;20545;-79
2021/07/06 00:07:27;;;;;;;14.98;13.45;;;16.80;99.70;;;;;;5047204;28;20048;-79
2021/07/06 00:09:55;;;;;;;15.45;13.50;;;16.80;99.70;;;;;;5051883;28;20043;-79
2021/07/06 00:12:21;;;;;;;15.27;13.88;;;16.80;99.70;;;;;;5026557;28;20060;-80
2021/07/06 00:14:47;;;;;;;14.88;13.43;;;16.80;99.70;;;;;;5038379;28;20480;-79
2021/07/06 00:17:13;;;;;;;15.02;13.52;;;16.80;99.70;;;;;;5043042;28;20886;-80
2021/07/06 00:19:43;;;;;;;15.52;13.93;;;16.80;99.70;;;;;;5043551;28;20049;-81
2021/07/06 00:22:09;;;;;;;17.13;14.25;;;16.80;99.80;;;;;;5047669;28;20052;-81
2021/07/06 00:24:35;;;;;;;17.00;15.27;;;16.70;99.80;;;;;;5015626;28;20041;-80
2021/07/06 00:27:01;;;;;;;15.10;13.70;;;16.80;99.80;;;;;;5042818;28;20628;-79
2021/07/06 00:29:28;;;;;;;17.70;14.00;;;16.70;99.80;;;;;;5047719;28;20048;-73
2021/07/06 00:31:54;;;;;;;15.63;13.95;;;16.70;99.80;;;;;;5060432;28;20041;-73
2021/07/06 00:34:20;;;;;;;15.93;14.15;;;16.70;99.80;;;;;;5039482;28;20121;-73
2021/07/06 00:36:46;;;;;;;13.95;12.65;;;16.70;99.90;;;;;;5050204;28;20055;-73
2021/07/06 00:39:12;;;;;;;14.68;13.10;;;16.70;99.90;;;;;;5039356;28;20142;-73
2021/07/06 00:41:39;;;;;;;14.60;13.20;;;16.70;99.90;;;;;;5061863;28;20438;-74
2021/07/06 00:44:11;;;;;;;14.77;13.32;;;16.70;99.90;;;;;;5055521;28;20039;-73
2021/07/06 00:46:37;;;;;;;14.82;12.73;;;16.70;99.90;;;;;;5055737;28;20045;-74
2021/07/06 00:49:02;;;;;;;15.30;13.80;;;16.70;99.90;;;;;;5035612;28;20474;-74
2021/07/06 00:51:28;;;;;;;13.65;12.32;;;16.70;99.90;;;;;;5037628;28;20124;-74
2021/07/06 00:53:55;;;;;;;14.55;13.00;;;16.70;99.90;;;;;;5025720;28;20491;-73
2021/07/06 00:56:21;;;;;;;13.30;11.88;;;16.70;99.90;;;;;;5047652;28;20115;-73
2021/07/06 00:58:48;;;;;;;13.82;12.40;;;16.70;99.90;;;;;;5038357;28;20451;-73
2021/07/06 01:01:15;;;;;;;14.50;12.32;;;16.70;99.90;;;;;;5061741;28;20044;-73
2021/07/06 01:03:41;;;;;;;14.85;11.82;;;16.70;99.90;;;;;;5057466;28;20029;-73
2021/07/06 01:06:08;;;;;;;13.57;12.32;;;16.70;99.90;;;;;;5043576;28;20041;-73
2021/07/06 01:08:34;;;;;;;16.67;12.98;;;16.70;99.90;;;;;;5049581;28;20068;-73
2021/07/06 01:11:00;;;;;;;15.07;13.48;;;16.70;99.90;;;;;;5051925;28;20118;-73
2021/07/06 01:13:29;;;;;;;14.02;12.63;;;16.70;99.90;;;;;;5038438;28;20039;-73
2021/07/06 01:15:55;;;;;;;12.93;11.65;;;16.70;99.90;;;;;;5039681;28;20044;-73
2021/07/06 01:18:21;;;;;;;14.35;12.05;;;16.70;99.90;;;;;;5056136;28;20041;-73
2021/07/06 01:20:50;;;;;;;14.00;12.07;;;16.70;99.90;;;;;;5051516;28;20061;-73
2021/07/06 01:23:19;;;;;;;16.42;12.25;;;16.70;99.90;;;;;;5035938;28;20033;-73
2021/07/06 01:25:47;;;;;;;14.88;13.13;;;16.70;99.90;;;;;;5032002;28;20047;-73
2021/07/06 01:28:13;;;;;;;15.48;12.45;;;16.70;99.90;;;;;;5059933;28;20041;-74
2021/07/06 01:30:39;;;;;;;13.77;12.32;;;16.70;99.90;;;;;;5034593;28;20122;-73
2021/07/06 01:33:06;;;;;;;16.20;11.50;;;16.80;99.90;;;;;;5018079;28;20036;-73
2021/07/06 01:35:32;;;;;;;13.40;11.93;;;16.80;99.90;;;;;;5034427;28;20511;-74
2021/07/06 01:38:06;;;;;;;13.32;12.02;;;16.80;99.90;;;;;;5042428;28;20036;-73
2021/07/06 01:40:33;;;;;;;15.15;13.65;;;16.80;99.90;;;;;;5016976;28;20033;-74
2021/07/06 01:42:59;;;;;;;14.75;11.98;;;16.80;99.90;;;;;;5054028;28;20036;-73
2021/07/06 01:45:30;;;;;;;13.85;12.45;;;16.80;99.90;;;;;;5039661;28;20159;-73
2021/07/06 01:47:59;;;;;;;14.63;13.13;;;16.90;99.90;;;;;;5026159;28;20043;-73
2021/07/06 01:50:28;;;;;;;14.07;12.63;;;16.90;99.90;;;;;;5062361;28;20036;-72
2021/07/06 01:52:56;;;;;;;13.63;12.25;;;16.90;99.90;;;;;;5048847;28;20037;-73
2021/07/06 01:55:24;;;;;;;14.70;13.23;;;16.90;99.90;;;;;;5059829;28;20045;-73
2021/07/06 01:57:52;;;;;;;14.18;12.40;;;16.90;99.90;;;;;;5051985;28;20057;-73
2021/07/06 02:00:20;;;;;;;14.55;12.85;;;16.90;99.90;;;;;;5023964;28;21612;-73
2021/07/06 02:02:47;;;;;;;14.68;13.20;;;16.90;99.90;;;;;;5024805;28;20072;-73
2021/07/06 02:05:19;;;;;;;12.68;11.38;;;16.90;99.90;;;;;;5015093;28;20129;-73
2021/07/06 02:07:48;;;;;;;14.05;11.98;;;16.90;99.90;;;;;;5044732;28;20048;-73
2021/07/06 02:10:15;;;;;;;;;;;16.90;99.90;;;;;;5032815;28;20041;-74
2021/07/06 02:12:41;;;;;;;15.23;13.73;;;16.90;99.90;;;;;;5020825;28;19921;-73
2021/07/06 02:15:11;;;;;;;13.07;11.77;;;16.90;99.90;;;;;;5034569;28;20499;-73
2021/07/06 02:17:38;;;;;;;13.43;12.20;;;16.90;99.90;;;;;;5018605;28;20113;-74
2021/07/06 02:20:09;;;;;;;12.95;11.60;;;16.90;99.90;;;;;;5022347;28;20041;-73
2021/07/06 02:22:41;;;;;;;12.85;11.55;;;17.00;99.90;;;;;;5044251;28;20062;-74
2021/07/06 02:25:08;;;;;;;13.15;11.90;;;17.00;99.90;;;;;;5038191;28;20037;-73
2021/07/06 02:27:35;;;;;;;12.80;11.25;;;17.00;99.90;;;;;;5018270;28;20128;-73
2021/07/06 02:30:03;;;;;;;12.27;10.82;;;17.00;99.90;;;;;;5049336;28;20037;-73
2021/07/06 02:32:29;;;;;;;13.18;11.70;;;17.00;99.90;;;;;;5034778;28;20059;-73
2021/07/06 02:34:55;;;;;;;11.75;10.55;;;17.10;99.90;;;;;;5040275;28;20040;-73
2021/07/06 02:37:21;;;;;;;11.65;10.45;;;17.10;99.90;;;;;;5035587;28;20524;-73
2021/07/06 02:39:48;;;;;;;14.00;11.60;;;17.10;99.90;;;;;;5040121;28;20418;-73
2021/07/06 02:42:14;;;;;;;11.40;10.15;;;17.10;99.90;;;;;;5034609;28;20036;-80
2021/07/06 02:44:40;;;;;;;11.77;10.27;;;17.10;99.90;;;;;;5053934;28;20040;-80
2021/07/06 02:47:06;;;;;;;13.27;10.45;;;17.20;99.90;;;;;;5051998;28;20044;-82
2021/07/06 02:49:32;;;;;;;12.85;11.30;;;17.10;99.90;;;;;;5027667;28;20460;-81
2021/07/06 02:52:03;;;;;;;11.13;10.02;;;17.20;99.90;;;;;;5054170;28;20041;-80
2021/07/06 02:54:29;;;;;;;11.77;10.63;;;17.20;99.90;;;;;;5030876;28;20049;-80
2021/07/06 02:56:56;;;;;;;11.68;10.48;;;17.20;99.90;;;;;;5057013;28;20459;-81
2021/07/06 02:59:21;;;;;;;11.70;9.77;;;17.20;99.90;;;;;;5041033;28;20036;-80
2021/07/06 03:01:48;;;;;;;12.18;10.75;;;17.20;99.90;;;;;;5044744;28;20109;-80
2021/07/06 03:04:13;;;;;;;13.13;10.38;;;17.20;99.90;;;;;;5035777;28;20102;-80
2021/07/06 03:06:39;;;;;;;12.88;10.48;;;17.20;99.90;;;;;;5045733;28;20408;-81
2021/07/06 03:09:05;;;;;;;14.63;10.43;;;17.20;99.90;;;;;;5063246;28;20044;-81
2021/07/06 03:11:31;;;;;;;11.93;9.82;;;17.30;99.90;;;;;;5039501;28;20033;-80
2021/07/06 03:14:06;;;;;;;12.05;10.82;;;17.30;99.90;;;;;;5023845;28;20036;-81
2021/07/06 03:16:32;;;;;;;13.25;11.18;;;17.30;99.90;;;;;;5026267;28;20037;-80
2021/07/06 03:19:01;;;;;;;11.98;10.48;;;17.40;99.90;;;;;;5037040;28;20037;-80
2021/07/06 03:21:27;;;;;;;14.10;10.43;;;17.30;99.90;;;;;;5061290;28;20045;-80
2021/07/06 03:23:54;;;;;;;13.80;10.20;;;17.30;99.90;;;;;;5032049;28;20803;-80
2021/07/06 03:26:20;;;;;;;11.98;10.65;;;17.30;99.90;;;;;;5024013;28;20041;-79
2021/07/06 03:28:46;;;;;;;12.13;10.15;;;17.30;99.90;;;;;;5045396;28;20043;-73
2021/07/06 03:31:14;;;;;;;13.52;10.65;;;17.20;99.90;;;;;;5034168;28;20054;-73
2021/07/06 03:33:40;;;;;;;10.70;9.50;;;17.20;99.90;;;;;;5028194;28;20119;-73
2021/07/06 03:36:06;;;;;;;10.38;9.27;;;17.20;99.90;;;;;;5019018;28;20043;-74
2021/07/06 03:38:32;;;;;;;11.10;9.43;;;17.30;99.90;;;;;;5022723;28;20036;-81
2021/07/06 03:40:58;;;;;;;11.80;8.95;;;17.30;99.90;;;;;;5029582;28;20514;-80
2021/07/06 03:43:24;;;;;;;10.45;9.35;;;17.30;99.90;;;;;;5038779;28;20061;-80
2021/07/06 03:45:50;;;;;;;12.18;9.40;;;17.30;99.90;;;;;;5044883;28;20880;-81
2021/07/06 03:48:16;;;;;;;11.60;9.20;;;17.30;99.90;;;;;;5017521;28;20402;-80
2021/07/06 03:50:42;;;;;;;12.45;8.77;;;17.30;99.90;;;;;;5038492;28;20097;-80
2021/07/06 03:53:08;;;;;;;10.98;8.52;;;17.30;99.90;;;;;;5035031;28;20051;-80
2021/07/06 03:55:34;;;;;;;9.88;7.95;;;17.40;99.90;;;;;;5027063;28;20431;-73
2021/07/06 03:58:01;;;;;;;11.18;9.13;;;17.40;99.90;;;;;;5009871;28;20040;-74
2021/07/06 04:00:29;;;;;;;9.73;8.38;;;17.30;99.90;;;;;;5030835;28;20051;-73
2021/07/06 04:02:56;;;;;;;10.25;8.23;;;17.30;99.90;;;;;;5033056;28;20041;-74
2021/07/06 04:05:24;;;;;;;8.88;7.80;;;17.30;99.90;;;;;;5053948;28;20089;-73
2021/07/06 04:07:51;;;;;;;9.65;8.55;;;17.40;99.90;;;;;;5036426;28;20041;-80
2021/07/06 04:10:18;;;;;;;9.15;7.55;;;17.40;99.90;;;;;;5032967;28;20496;-81
2021/07/06 04:12:46;;;;;;;8.75;7.25;;;17.40;99.90;;;;;;5052753;28;20061;-80
2021/07/06 04:15:13;;;;;;;9.38;7.32;;;17.40;99.90;;;;;;5040670;28;20499;-80
2021/07/06 04:17:40;;;;;;;8.07;7.07;;;17.50;99.90;;;;;;5002794;28;20132;-82
2021/07/06 04:20:10;;;;;;;7.85;7.03;;;17.50;99.90;;;;;;5055191;28;20111;-81
2021/07/06 04:22:36;;;;;;;;;;;17.60;99.90;;;;;;5055511;28;20041;-80
2021/07/06 04:25:03;;;;;;;7.03;6.00;;;17.60;99.90;;;;;;5053154;28;19924;-80
2021/07/06 04:27:29;;;;;;;9.55;6.32;;;17.60;99.90;;;;;;5034266;28;20123;-81
2021/07/06 04:29:55;;;;;;;7.85;6.07;;;17.70;99.90;;;;;;5044507;28;20116;-80
2021/07/06 04:32:24;;;;;;;6.70;5.10;;;17.70;99.90;;;;;;5030146;28;20108;-81
2021/07/06 04:34:50;;;;;;;7.32;5.32;;;17.70;99.90;;;;;;5029778;28;20063;-79
2021/07/06 04:37:16;;;;;;;7.25;4.85;;;17.70;99.90;;;;;;5043429;28;20110;-81
2021/07/06 04:39:43;;;;;;;6.43;5.70;;;17.70;99.90;;;;;;5041684;28;20044;-80
2021/07/06 04:42:12;;;;;;;7.43;5.20;;;17.80;99.90;;;;;;5038304;28;20063;-80
2021/07/06 04:44:38;;;;;;;6.18;4.93;;;17.80;99.90;;;;;;5017141;28;20075;-80
2021/07/06 04:47:04;;;;;;;9.35;4.78;;;17.90;99.90;;;;;;5016188;28;20032;-80
2021/07/06 04:49:30;;;;;;;4.85;4.25;;;17.90;99.90;;;;;;5024096;28;20414;-81
2021/07/06 04:51:56;;;;;;;6.15;3.97;;;18.00;99.90;;;;;;5045212;28;20049;-81
2021/07/06 04:54:25;;;;;;;5.88;4.28;;;18.00;99.90;;;;;;5030189;28;20047;-80
2021/07/06 04:56:52;;;;;;;4.85;4.10;;;18.00;99.90;;;;;;5038352;28;20045;-79
2021/07/06 04:59:19;;;;;;;6.85;4.07;;;18.00;99.90;;;;;;5069505;28;20416;-82
2021/07/06 05:01:48;;;;;;;4.90;3.70;;;18.00;99.90;;;;;;5059221;28;20517;-80
2021/07/06 05:04:16;;;;;;;4.80;3.85;;;18.10;99.90;;;;;;5068451;28;20044;-80
2021/07/06 05:06:42;;;;;;;7.30;3.50;;;18.10;99.90;;;;;;5028360;28;20101;-81
2021/07/06 05:09:09;;;;;;;4.53;3.55;;;18.20;99.90;;;;;;5046718;28;20047;-79
2021/07/06 05:11:35;;;;;;;4.50;3.17;;;18.30;99.90;;;;;;5024679;28;20044;-81
2021/07/06 05:14:01;;;;;;;5.30;3.40;;;18.40;99.90;;;;;;5057069;28;20487;-81
2021/07/06 05:16:30;;;;;;;4.60;3.10;;;18.40;99.90;;;;;;5046335;28;20044;-80
2021/07/06 05:18:56;;;;;;;4.18;2.60;;;18.50;99.90;;;;;;5044109;28;20119;-80
2021/07/06 05:21:22;;;;;;;3.90;2.60;;;18.60;99.70;;;;;;5030648;28;20778;-81
2021/07/06 05:23:47;;;;;;;6.00;2.50;;;18.70;99.60;;;;;;5043241;28;20049;-80
2021/07/06 05:26:14;;;;;;;4.10;2.30;;;18.80;99.60;;;;;;5035801;28;20098;-81
2021/07/06 05:28:40;;;;;;;3.40;2.47;;;18.80;99.50;;;;;;5026714;28;20084;-81
2021/07/06 05:31:07;;;;;;;3.28;2.30;;;18.90;99.40;;;;;;5025923;28;20203;-80
2021/07/06 05:33:33;;;;;;;2.97;2.03;;;18.90;99.20;;;;;;5043775;28;20041;-80
2021/07/06 05:35:59;;;;;;;4.78;2.47;;;18.90;99.20;;;;;;5042555;28;20036;-81
2021/07/06 05:38:26;;;;;;;6.43;2.45;;;18.90;99.10;;;;;;5045617;28;20094;-79
2021/07/06 05:40:55;;;;;;;4.70;2.15;;;18.90;99.10;;;;;;5026346;28;20128;-80
2021/07/06 05:43:25;;;;;;;3.85;2.13;;;18.80;99.00;;;;;;5044705;28;20037;-81
2021/07/06 05:45:54;;;;;;;;;;;18.80;99.00;;;;;;5040624;28;20037;-83
2021/07/06 05:48:20;;;;;;;5.65;2.38;;;18.70;99.00;;;;;;5050789;28;19948;-80
2021/07/06 05:50:47;;;;;;;3.28;2.50;;;18.70;99.10;;;;;;5043756;28;20041;-81
2021/07/06 05:53:13;;;;;;;3.92;2.38;;;18.60;99.20;;;;;;5025109;28;20048;-81
2021/07/06 05:55:40;;;;;;;4.40;2.22;;;18.60;99.30;;;;;;5025056;28;20048;-82
2021/07/06 05:58:06;;;;;;;4.15;2.45;;;18.60;99.10;;;;;;5039770;28;20672;-83
2021/07/06 06:16:07;;;;;;;6.55;3.58;;;18.10;99.90;;;;;;5018680;22;20107;-80
2021/07/06 06:18:34;;;;;;;4.00;3.50;;;18.10;99.90;;;;;;5016925;28;20541;-81
2021/07/06 06:21:00;;;;;;;5.78;3.22;;;18.10;99.90;;;;;;4982632;28;20049;-86
2021/07/06 06:23:26;;;;;;;4.68;3.53;;;18.10;99.90;;;;;;5030894;28;20038;-82
2021/07/06 06:25:52;;;;;;;4.32;3.45;;;18.20;99.90;;;;;;5014835;28;20042;-82
2021/07/06 06:28:18;;;;;;;7.05;3.58;;;18.20;99.90;;;;;;5004107;28;20092;-80
2021/07/06 06:30:44;;;;;;;5.95;3.53;;;18.20;99.90;;;;;;5017885;28;20056;-81
2021/07/06 06:33:13;;;;;;;6.05;3.72;;;18.20;99.90;;;;;;5010852;28;20091;-82
2021/07/06 06:35:40;;;;;;;5.60;3.63;;;18.20;99.90;;;;;;5016717;28;20057;-83
2021/07/06 06:38:10;;;;;;;7.03;3.40;;;18.20;99.90;;;;;;5030228;28;20156;-83
2021/07/06 06:40:39;;;;;;;5.97;3.53;;;18.20;99.90;;;;;;5003600;28;20037;-81
2021/07/06 06:43:05;;;;;;;4.97;3.50;;;18.20;99.90;;;;;;4999401;28;20041;-82
2021/07/06 06:45:31;;;;;;;7.38;3.88;;;18.20;99.90;;;;;;5000882;28;20068;-82
2021/07/06 06:48:00;;;;;;;5.47;3.47;;;18.20;99.90;;;;;;4987800;28;20049;-81
2021/07/06 06:50:26;;;;;;;5.05;3.03;;;18.30;99.90;;;;;;5001929;28;20045;-84
2021/07/06 06:52:52;;;;;;;3.90;3.25;;;18.30;99.90;;;;;;5021818;28;20037;-82
2021/07/06 06:55:18;;;;;;;5.38;3.38;;;18.30;99.90;;;;;;5003902;28;20518;-81
2021/07/06 06:57:44;;;;;;;4.75;3.70;;;18.30;99.90;;;;;;5021394;28;20087;-81
2021/07/06 07:00:10;;;;;;;4.72;3.53;;;18.30;99.90;;;;;;5003471;28;20120;-80
2021/07/06 07:02:41;;;;;;;5.95;3.65;;;18.30;99.90;;;;;;5019198;28;20408;-82
2021/07/06 07:05:07;;;;;;;6.13;3.78;;;18.30;99.90;;;;;;5004422;28;20049;-81
2021/07/06 07:07:34;;;;;;;6.97;4.00;;;18.30;99.90;;;;;;5018715;28;20117;-82
2021/07/06 07:10:00;;;;;;;5.38;3.30;;;18.40;99.90;;;;;;5019472;28;20154;-80
2021/07/06 07:12:26;;;;;;;6.07;3.55;;;18.40;99.90;;;;;;5021801;28;20479;-81
2021/07/06 07:14:52;;;;;;;4.53;3.25;;;18.40;99.90;;;;;;5018048;28;20042;-81
2021/07/06 07:17:19;;;;;;;6.18;3.92;;;18.50;99.90;;;;;;5021500;28;20041;-79
2021/07/06 07:19:45;;;;;;;5.88;3.50;;;18.50;99.90;;;;;;5017193;28;20367;-82
2021/07/06 07:22:11;;;;;;;5.50;3.15;;;18.60;99.90;;;;;;5002469;28;20044;-81
2021/07/06 07:24:40;;;;;;;6.60;3.58;;;18.60;99.90;;;;;;5017630;28;20033;-81
2021/07/06 07:27:09;;;;;;;5.72;3.33;;;18.70;99.90;;;;;;5017962;28;20040;-81
2021/07/06 07:29:35;;;;;;;8.37;3.30;;;18.70;99.90;;;;;;5017912;28;20041;-81
2021/07/06 07:32:02;;;;;;;3.78;2.90;;;18.80;99.90;;;;;;5018446;28;20289;-80
2021/07/06 07:34:28;;;;;;;7.43;3.10;;;18.90;99.90;;;;;;5007545;28;20103;-79
2021/07/06 07:36:54;;;;;;;5.82;3.13;;;18.90;99.90;;;;;;5001241;28;20407;-80
2021/07/06 07:39:20;;;;;;;5.75;3.80;;;18.90;99.90;;;;;;5017709;28;20037;-80
2021/07/06 07:41:46;;;;;;;5.82;3.10;;;19.00;99.90;;;;;;5020658;28;20507;-81
2021/07/06 07:44:14;;;;;;;5.32;3.00;;;19.00;99.90;;;;;;5020257;28;20037;-81
2021/07/06 07:46:40;;;;;;;7.25;2.97;;;19.00;99.90;;;;;;5018405;28;20068;-81
2021/07/06 07:49:09;;;;;;;4.18;2.72;;;19.10;99.90;;;;;;5018332;28;20045;-80
2021/07/06 07:51:35;;;;;;;5.22;2.58;;;19.20;99.90;;;;;;4984138;28;20049;-80
2021/07/06 07:54:00;;;;;;;4.63;2.60;;;19.20;99.90;;;;;;5004244;28;20268;-79
2021/07/06 07:56:26;;;;;;;5.03;2.78;;;19.20;99.90;;;;;;5017619;28;20380;-81
2021/07/06 07:58:52;;;;;;;4.65;2.80;;;19.30;99.90;;;;;;4984958;28;20045;-79
2021/07/06 08:01:18;;;;;;;4.20;2.55;;;19.30;99.90;;;;;;5013797;28;20037;-78
2021/07/06 08:03:45;;;;;;;4.97;2.83;;;19.40;99.90;;;;;;4999800;28;20690;-80
2021/07/06 08:06:11;;;;;;;7.28;2.75;;;19.50;99.90;;;;;;5015699;28;20419;-80
2021/07/06 08:08:40;;;;;;;5.32;2.78;;;19.60;99.90;;;;;;5014604;28;20056;-79
2021/07/06 08:11:05;;;;;;;4.63;2.55;;;19.60;99.90;;;;;;5023163;28;20088;-80
2021/07/06 08:13:38;;;;;;;6.15;2.95;;;19.70;99.90;;;;;;5001228;28;20574;-81
2021/07/06 08:45:38;;;;;;;5.28;2.70;;;20.10;99.30;;;;;;4979384;28;20119;-77
2021/07/06 08:48:04;;;;;;;4.95;2.17;;;20.30;98.50;;;;;;4970884;28;20537;-77
2021/07/06 08:50:30;;;;;;;4.00;2.28;;;20.40;98.50;;;;;;4972426;28;20042;-78
2021/07/06 08:52:56;;;;;;;3.58;2.38;;;20.40;98.70;;;;;;4940140;28;20165;-77
2021/07/06 08:55:23;;;;;;;5.00;2.20;;;20.50;98.10;;;;;;4956887;28;20049;-79
2021/07/06 08:57:52;;;;;;;4.93;2.10;;;20.60;98.00;;;;;;4974237;28;20038;-78
2021/07/06 09:00:18;;;;;;;5.05;2.63;;;20.60;97.20;;;;;;4974783;28;20073;-77
2021/07/06 09:02:57;;;;;;;4.85;2.10;;;20.60;96.90;;;;;;4958223;28;20093;-76
2021/07/06 09:05:25;;;;;;;4.63;2.13;;;20.60;97.40;;;;;;4957885;28;20049;-78
2021/07/06 09:07:50;;;;;;;5.03;2.08;;;20.60;97.50;;;;;;4976427;28;20058;-77
2021/07/06 09:10:23;;;;;;;3.83;2.33;;;20.60;96.70;;;;;;4972624;28;20454;-77
2021/07/06 09:12:49;;;;;;;3.10;1.88;;;20.60;96.00;;;;;;4941531;28;20489;-77
2021/07/06 09:15:18;;;;;;;4.43;2.08;;;20.60;95.90;;;;;;4974896;28;20052;-77
2021/07/06 09:17:44;;;;;;;3.35;1.55;;;20.70;96.40;;;;;;4957539;28;20085;-78
2021/07/06 09:20:11;;;;;;;4.80;1.88;;;20.80;95.60;;;;;;4955687;28;20493;-78
2021/07/06 09:22:37;;;;;;;4.38;1.38;;;21.00;95.60;;;;;;4976556;28;20836;-78
2021/07/06 09:25:09;;;;;;;3.72;1.50;;;21.10;95.00;;;;;;4977111;28;20134;-82
2021/07/06 09:27:40;;;;;;;4.90;1.67;;;21.30;94.80;;;;;;4959640;28;20042;-80
2021/07/06 09:30:18;;;;;;;3.25;1.40;;;21.40;94.40;;;;;;4957648;28;20056;-79
2021/07/06 09:32:53;;;;;;;4.13;1.77;;;21.60;94.10;;;;;;4957225;28;20040;-77
2021/07/06 09:35:25;;;;;;;3.17;1.50;;;21.80;92.50;;;;;;4975460;28;20070;-76
2021/07/06 09:37:55;;;;;;;2.55;1.38;;;21.70;93.00;;;;;;4974822;28;20634;-77
2021/07/06 09:40:33;;;;;;;;;;;21.80;93.00;;;;;;4957259;28;20046;-78
2021/07/06 09:43:25;;;;;;;3.17;1.35;;;21.80;92.70;;;;;;4962304;28;19929;-78
2021/07/06 09:46:08;;;;;;;5.60;1.95;;;21.90;92.60;;;;;;4960568;28;20042;-80
2021/07/06 09:48:43;;;;;;;3.63;1.30;;;22.10;92.40;;;;;;4994313;28;20124;-78
2021/07/06 09:51:19;;;;;;;3.90;1.23;;;22.30;92.30;;;;;;4991006;28;20515;-77
2021/07/06 09:53:53;;;;;;;2.55;1.30;;;22.40;91.90;;;;;;4998747;28;20038;-78
2021/07/06 09:56:22;;;;;;;6.35;1.70;;;22.40;91.60;;;;;;4995146;28;20037;-79
2021/07/06 09:59:00;;;;;;;2.97;1.30;;;22.30;91.00;;;;;;4982073;28;20080;-79
2021/07/06 10:01:28;;;;;;;2.55;1.30;;;22.10;90.90;;;;;;4997545;28;20034;-78
2021/07/06 10:03:55;;;;;;;3.47;1.45;;;22.00;91.70;;;;;;4977868;28;20058;-79
2021/07/06 10:06:24;;;;;;;4.38;1.33;;;22.10;91.90;;;;;;4997361;28;20557;-79
2021/07/06 10:08:55;;;;;;;4.38;1.50;;;22.30;91.20;;;;;;4998944;28;20038;-77
2021/07/06 10:11:22;;;;;;;4.18;1.13;;;22.60;91.50;;;;;;4996372;28;20080;-78
2021/07/06 10:13:49;;;;;;;3.80;1.20;;;22.70;89.80;;;;;;4996435;28;20056;-78
2021/07/06 10:16:15;;;;;;;2.92;1.05;;;22.70;89.30;;;;;;4994085;28;20038;-81
2021/07/06 10:18:41;;;;;;;2.03;0.90;;;22.70;89.80;;;;;;4998615;28;20093;-76
2021/07/06 10:21:07;;;;;;;4.82;1.20;;;22.60;87.70;;;;;;4992177;28;20053;-81
2021/07/06 10:23:34;;;;;;;3.08;1.00;;;22.50;88.20;;;;;;4999455;28;20030;-76
2021/07/06 10:26:04;;;;;;;2.88;1.20;;;22.60;86.40;;;;;;4997159;28;20607;-77
2021/07/06 10:28:31;;;;;;;2.42;1.08;;;22.60;87.50;;;;;;4995995;28;20044;-78
2021/07/06 10:31:17;;;;;;;4.88;1.30;;;22.60;85.70;;;;;;4999365;28;20061;-77
2021/07/06 10:33:48;;;;;;;2.38;1.20;;;22.60;85.80;;;;;;4996018;28;20038;-78
2021/07/06 10:36:15;;;;;;;6.60;1.20;;;22.50;84.40;;;;;;4992900;28;20571;-78
2021/07/06 10:38:53;;;;;;;4.35;1.02;;;22.40;85.50;;;;;;4978028;28;21030;-77
2021/07/06 10:41:42;;;;;;;2.38;0.90;;;22.40;87.60;;;;;;4975851;28;20177;-78
2021/07/06 10:44:09;;;;;;;3.30;1.35;;;22.50;87.20;;;;;;4995594;28;20046;-79
2021/07/06 10:49:32;;;;;;;2.38;1.10;;;22.10;86.90;;;;;;4965522;28;20078;-79
2021/07/06 10:52:01;;;;;;;5.03;1.45;;;21.80;86.20;;;;;;4973208;28;20100;-78
2021/07/06 10:54:29;;;;;;;2.92;1.17;;;21.60;87.50;;;;;;4948081;28;20038;-78
2021/07/06 10:57:10;;;;;;;3.78;1.45;;;21.40;87.30;;;;;;4956485;28;20043;-78
2021/07/06 10:59:37;;;;;;;5.00;1.42;;;21.30;88.10;;;;;;4971704;28;20414;-78
2021/07/06 11:02:07;;;;;;;3.30;1.35;;;21.20;89.00;;;;;;4931858;28;20505;-78
2021/07/06 11:04:43;;;;;;;3.15;1.38;;;21.20;89.20;;;;;;4944957;28;20061;-78
2021/07/06 11:07:14;;;;;;;7.68;1.90;;;21.50;89.60;;;;;;4959774;28;20053;-78
2021/07/06 11:09:40;;;;;;;5.50;1.33;;;21.90;89.30;;;;;;4959788;28;20046;-77
2021/07/06 11:12:32;;;;;;;4.22;1.42;;;22.20;89.60;;;;;;4977905;28;20038;-78
2021/07/06 11:15:03;;;;;;;3.63;1.10;;;22.60;87.80;;;;;;4944041;28;20046;-78
2021/07/06 11:17:33;;;;;;;4.75;1.10;;;22.70;84.90;;;;;;4976300;28;20132;-79
2021/07/06 11:20:09;;;;;;;5.88;1.35;;;22.90;83.40;;;;;;4937537;28;20046;-78
2021/07/06 11:22:46;;;;;;;2.30;1.00;;;22.90;84.60;;;;;;4974100;28;20038;-77
2021/07/06 11:25:24;;;;;;;2.83;0.85;;;22.70;81.40;;;;;;4959216;28;20525;-78
2021/07/06 11:28:13;;;;;;;4.07;1.20;;;22.70;81.90;;;;;;4977575;28;20474;-78
2021/07/06 11:30:44;;;;;;;3.88;1.30;;;22.70;83.70;;;;;;4957302;28;20327;-78
2021/07/06 11:33:25;;;;;;;5.65;1.30;;;22.80;83.50;;;;;;4959832;28;20049;-77
2021/07/06 11:36:03;;;;;;;3.80;1.10;;;23.10;83.10;;;;;;4954599;28;20054;-78
2021/07/06 11:38:46;;;;;;;6.07;1.42;;;23.20;80.30;;;;;;4959479;28;20066;-77
2021/07/06 11:41:16;;;;;;;4.57;1.20;;;23.30;78.70;;;;;;4958078;28;20050;-77
2021/07/06 11:43:42;;;;;;;4.68;1.25;;;23.20;78.10;;;;;;4956697;28;20045;-78
2021/07/06 11:46:11;;;;;;;3.92;1.00;;;23.20;78.00;;;;;;4958078;28;20166;-77
2021/07/06 11:48:39;;;;;;;4.13;1.00;;;23.20;78.00;;;;;;4968567;28;20718;-75
2021/07/06 11:51:12;;;;;;;3.75;1.25;;;23.20;78.70;;;;;;4992516;28;20065;-77
2021/07/06 11:53:40;;;;;;;3.90;1.35;;;23.30;78.40;;;;;;4997599;28;20185;-77
2021/07/06 11:56:09;;;;;;;3.60;1.13;;;23.50;77.00;;;;;;4989742;28;20121;-78
2021/07/06 11:58:36;;;;;;;4.67;1.10;;;23.60;74.60;;;;;;4996468;28;20044;-76
2021/07/06 12:01:08;;;;;;;5.15;0.95;;;23.70;75.30;;;;;;4974915;28;20045;-77
2021/07/06 12:03:35;;;;;;;7.38;1.02;;;23.80;75.10;;;;;;4994826;28;20132;-75
2021/07/06 12:06:04;;;;;;;4.13;1.08;;;23.90;71.90;;;;;;4975125;28;20046;-77
2021/07/06 12:08:32;;;;;;;6.63;1.20;;;23.80;72.70;;;;;;4993314;28;20066;-78
2021/07/06 12:11:03;;;;;;;3.72;1.02;;;23.80;74.20;;;;;;4996774;28;20639;-78
2021/07/06 12:13:32;;;;;;;4.75;0.98;;;24.00;74.70;;;;;;4996399;28;20061;-79
2021/07/06 12:16:03;;;;;;;3.13;1.40;;;24.10;73.40;;;;;;4994128;28;20068;-77
2021/07/06 12:18:34;;;;;;;5.70;1.00;;;24.20;73.50;;;;;;4992768;28;20037;-75
2021/07/06 12:21:08;;;;;;;6.07;1.10;;;24.30;71.00;;;;;;4996213;28;20132;-76
2021/07/06 12:23:37;;;;;;;3.67;0.88;;;24.20;69.80;;;;;;5005438;28;20361;-76
2021/07/06 12:26:04;;;;;;;3.45;0.85;;;24.20;68.40;;;;;;4995906;28;20041;-77
2021/07/06 12:28:31;;;;;;;5.22;1.05;;;24.00;69.70;;;;;;4991687;28;20049;-75
2021/07/06 12:31:12;;;;;;;4.30;1.00;;;23.80;68.40;;;;;;4993401;28;20050;-77
2021/07/06 12:33:38;;;;;;;5.57;1.40;;;23.60;69.80;;;;;;4987041;28;20526;-79
2021/07/06 12:36:04;;;;;;;3.85;1.02;;;23.40;69.40;;;;;;4996974;28;20378;-78
2021/07/06 12:38:30;;;;;;;3.70;1.10;;;23.20;71.10;;;;;;4991227;28;20074;-77
2021/07/06 12:40:58;;;;;;;6.38;1.20;;;23.00;73.10;;;;;;4994150;28;20329;-79
2021/07/06 12:43:24;;;;;;;6.30;1.10;;;22.90;74.80;;;;;;4978471;28;20056;-76
2021/07/06 12:45:50;;;;;;;6.30;1.02;;;22.80;75.60;;;;;;4960198;28;20416;-78
2021/07/06 12:48:26;;;;;;;3.55;1.00;;;23.00;77.90;;;;;;4993077;28;20054;-77
2021/07/06 12:50:53;;;;;;;3.72;1.15;;;23.00;75.80;;;;;;4972199;28;20572;-78
2021/07/06 12:53:27;;;;;;;4.95;1.30;;;22.90;75.60;;;;;;4959522;28;20069;-78
2021/07/06 12:55:53;;;;;;;8.40;1.52;;;22.60;75.30;;;;;;4953464;28;20117;-78
2021/07/06 12:58:25;;;;;;;4.10;1.20;;;22.40;75.90;;;;;;4956506;28;20505;-80
2021/07/06 13:00:53;;;;;;;6.05;1.45;;;22.20;76.80;;;;;;4949198;28;20134;-81
2021/07/06 13:03:20;;;;;;;8.40;1.38;;;22.20;76.70;;;;;;4929087;28;20046;-78
2021/07/06 13:05:48;;;;;;;7.22;1.50;;;22.40;77.50;;;;;;4969739;28;20050;-79
2021/07/06 13:08:21;;;;;;;5.63;1.30;;;22.60;76.10;;;;;;4955317;28;20042;-79
2021/07/06 13:10:49;;;;;;;6.10;1.13;;;22.70;75.50;;;;;;4938668;28;20453;-79
2021/07/06 13:13:19;;;;;;;5.60;1.20;;;22.90;76.90;;;;;;4938394;28;20062;-80
2021/07/06 13:15:48;;;;;;;8.43;1.13;;;23.10;72.70;;;;;;4971532;28;20045;-80
2021/07/06 13:18:20;;;;;;;6.88;1.02;;;22.90;70.40;;;;;;4957652;28;20074;-79
2021/07/06 13:20:51;;;;;;;5.95;1.40;;;22.70;69.20;;;;;;4972616;28;20050;-80
2021/07/06 13:23:17;;;;;;;7.07;1.00;;;22.60;66.20;;;;;;4957664;28;20054;-78
2021/07/06 13:25:43;;;;;;;7.63;0.95;;;22.70;65.00;;;;;;4976944;28;20038;-78
2021/07/06 13:28:10;;;;;;;5.28;0.77;;;23.00;62.50;;;;;;4969568;28;20349;-80
2021/07/06 13:30:41;;;;;;;3.60;1.10;;;23.20;62.00;;;;;;4957622;28;20073;-79
2021/07/06 13:33:16;;;;;;;9.73;1.77;;;23.10;61.80;;;;;;4955844;28;20056;-80
2021/07/06 13:35:43;;;;;;;4.60;0.85;;;22.90;62.00;;;;;;4956377;28;20069;-78
2021/07/06 13:38:10;;;;;;;5.15;0.80;;;22.60;65.50;;;;;;4976645;28;20042;-79